Terminal Aerodrome Forecast
Issued by NWS Charleston, SC

Home | Current Version | Previous Version | Text Only | Print | Product List | Glossary On
Versions: 1 2 3 4 5 6 7 8 9 10 11 12 13 14 15 16 17 18 19 20 21
000
FTUS42 KCHS 192300
TAFSAV
TAF
KSAV 192323Z 2000/2024 08008KT P6SM VCSH SCT030 BKN100
     FM200500 04008KT 4SM -SHRA BR BKN040
      TEMPO 2007/2010 2SM RA BR SCT025 BKN035
     FM201300 03012G17KT P6SM SCT030 BKN080
     FM201800 04012G18KT 6SM -SHRA SCT030 BKN050=

USA.gov is the U.S. government's official web portal to all federal, state and local government web resources and services.